Terminal Aerodrome Forecast
Issued by NWS Boston, MA

Home | Current Version | Previous Version | Text Only | Print | Product List | Glossary On
Versions: 1 2 3 4 5 6 7 8 9 10 11 12 13 14 15
000
FTUS41 KBOX 231732
TAFORH
TAF
KORH 231732Z 2318/2418 31014G23KT 6SM -SHRA OVC015
      TEMPO 2318/2320 6SM -SHRA OVC009
     FM240000 31014G28KT P6SM OVC045
     FM240600 31015G32KT P6SM SCT250=

USA.gov is the U.S. government's official web portal to all federal, state and local government web resources and services.